Time;durP1;ratioP1;P1;durP2;ratioP2;P2;SDS_P1;SDS_P2;PMS_P1;PMS_P2;Temp;Humidity;BMP_temperature;BMP_pressure;BME280_temperature;BME280_humidity;BME280_pressure;Samples;Min_cycle;Max_cycle;Signal;HPM_P1;HPM_P2
2024/03/31 00:00:22;;;;;;;1999.90;999.90;;;9.90;99.90;;;;;;5033342;28;20037;-68
2024/03/31 00:02:48;;;;;;;1999.90;999.90;;;9.90;99.90;;;;;;5033854;28;20025;-68
2024/03/31 00:05:14;;;;;;;1999.90;999.90;;;9.90;99.90;;;;;;5033563;28;20164;-68
2024/03/31 00:07:39;;;;;;;1999.90;999.90;;;9.90;99.90;;;;;;5033129;28;20033;-68
2024/03/31 00:10:05;;;;;;;1999.90;999.90;;;9.90;99.90;;;;;;5033244;28;20018;-74
2024/03/31 00:12:31;;;;;;;1999.90;999.90;;;9.90;99.90;;;;;;5033442;28;20033;-73
2024/03/31 00:14:57;;;;;;;1999.90;999.90;;;9.90;99.90;;;;;;5033762;28;20025;-68
2024/03/31 00:17:23;;;;;;;1999.90;999.90;;;9.90;99.90;;;;;;5033284;28;20025;-68
2024/03/31 00:19:49;;;;;;;1999.90;999.90;;;9.90;99.90;;;;;;5032489;28;20060;-68
2024/03/31 00:22:15;;;;;;;1999.90;999.90;;;10.00;99.90;;;;;;5032641;28;20017;-68
2024/03/31 00:24:44;;;;;;;1999.90;999.90;;;9.90;99.90;;;;;;5033028;28;20393;-67
2024/03/31 00:27:13;;;;;;;1999.90;999.90;;;9.90;99.90;;;;;;5032995;28;20392;-68
2024/03/31 00:29:39;;;;;;;1999.90;999.90;;;9.80;99.90;;;;;;5032880;28;20500;-73
2024/03/31 00:32:05;;;;;;;1999.90;999.90;;;9.70;99.90;;;;;;5032969;28;20064;-68
2024/03/31 00:34:31;;;;;;;1999.90;999.90;;;9.60;99.90;;;;;;5032995;28;20018;-67
2024/03/31 00:36:56;;;;;;;1999.90;999.90;;;9.60;99.90;;;;;;5031582;28;20037;-68
2024/03/31 00:39:22;;;;;;;1999.90;999.90;;;9.50;99.90;;;;;;5033133;28;20028;-67
2024/03/31 00:41:47;;;;;;;1999.90;999.90;;;9.50;99.90;;;;;;5032710;28;20100;-68
2024/03/31 00:44:13;;;;;;;1999.90;999.90;;;9.50;99.90;;;;;;5032887;28;20036;-68
2024/03/31 00:46:39;;;;;;;1999.90;999.90;;;9.40;99.90;;;;;;5032693;28;20034;-67
2024/03/31 00:49:05;;;;;;;1999.90;999.90;;;9.40;99.90;;;;;;5032627;28;20033;-67
2024/03/31 00:51:30;;;;;;;1999.90;999.90;;;9.40;99.90;;;;;;5032840;28;20037;-67
2024/03/31 00:53:56;;;;;;;1999.90;999.90;;;9.30;99.90;;;;;;5032769;28;20025;-67
2024/03/31 00:56:21;;;;;;;1999.90;999.90;;;9.30;99.90;;;;;;5032548;28;20051;-68
2024/03/31 00:58:47;;;;;;;1999.90;999.90;;;9.30;99.90;;;;;;5032555;28;20032;-67
2024/03/31 01:01:13;;;;;;;1999.90;999.90;;;9.20;99.90;;;;;;5032570;28;20409;-73
2024/03/31 01:03:39;;;;;;;1999.90;999.90;;;9.20;99.90;;;;;;5032903;28;20078;-73
2024/03/31 01:06:11;;;;;;;1999.90;999.90;;;9.20;99.90;;;;;;5032173;28;20036;-73
2024/03/31 01:08:38;;;;;;;1999.90;999.90;;;9.10;99.90;;;;;;5031802;28;20061;-67
2024/03/31 01:11:04;;;;;;;1999.90;999.90;;;9.20;99.90;;;;;;5032532;28;20034;-67
2024/03/31 01:13:31;;;;;;;1999.90;999.90;;;9.20;99.90;;;;;;5032693;28;20018;-67
2024/03/31 01:15:57;;;;;;;1999.90;999.90;;;9.20;99.90;;;;;;5032624;28;20386;-67
2024/03/31 01:18:22;;;;;;;1999.90;999.90;;;9.20;99.90;;;;;;5032343;28;20068;-67
2024/03/31 01:20:49;;;;;;;1999.90;999.90;;;9.30;99.90;;;;;;5031877;28;20044;-73
2024/03/31 01:23:17;;;;;;;1999.90;999.90;;;9.20;99.90;;;;;;5031845;28;20079;-67
2024/03/31 01:25:43;;;;;;;1999.90;999.90;;;9.20;99.90;;;;;;5031763;28;20033;-67
2024/03/31 01:28:08;;;;;;;1999.90;999.90;;;9.20;99.90;;;;;;5032258;28;20029;-68
2024/03/31 01:30:34;;;;;;;1999.90;999.90;;;9.10;99.90;;;;;;5032254;28;20100;-67
2024/03/31 01:33:00;;;;;;;1999.90;999.90;;;9.10;99.90;;;;;;5032966;28;20049;-67
2024/03/31 01:35:25;;;;;;;1999.90;999.90;;;9.00;99.90;;;;;;5036673;28;20033;-67
2024/03/31 01:37:52;;;;;;;1999.90;999.90;;;9.00;99.90;;;;;;5035840;28;20030;-67
2024/03/31 01:40:18;;;;;;;1999.90;999.90;;;9.00;99.90;;;;;;5036289;28;20075;-68
2024/03/31 01:42:45;;;;;;;1999.90;999.90;;;8.90;99.90;;;;;;5035998;28;20026;-67
2024/03/31 01:45:11;;;;;;;1999.90;999.90;;;8.90;99.90;;;;;;5036252;28;20029;-67
2024/03/31 01:47:37;;;;;;;1999.90;999.90;;;8.90;99.90;;;;;;5035793;28;20029;-67
2024/03/31 01:50:04;;;;;;;1999.90;999.90;;;8.90;99.90;;;;;;5035730;28;20033;-68
2024/03/31 01:52:30;;;;;;;1999.90;999.90;;;8.90;99.90;;;;;;5036038;28;20091;-68
2024/03/31 01:54:55;;;;;;;1999.90;999.90;;;8.90;99.90;;;;;;5035949;28;20026;-67
2024/03/31 01:57:21;;;;;;;1999.90;999.90;;;8.90;99.90;;;;;;5034496;28;20067;-67
2024/03/31 01:59:47;;;;;;;1999.90;999.90;;;8.90;99.90;;;;;;5035954;28;20037;-67
2024/03/31 02:02:12;;;;;;;1999.90;999.90;;;8.90;99.90;;;;;;5035684;28;20025;-67
2024/03/31 02:04:38;;;;;;;1999.90;999.90;;;8.90;99.90;;;;;;5035622;28;20033;-74
2024/03/31 02:07:03;;;;;;;1999.90;999.90;;;8.90;99.90;;;;;;5035555;28;20177;-68
2024/03/31 02:09:29;;;;;;;1999.90;999.90;;;8.90;99.90;;;;;;5035516;28;20100;-67
2024/03/31 02:11:55;;;;;;;1999.90;999.90;;;9.00;99.90;;;;;;5035644;28;20443;-67
2024/03/31 02:14:21;;;;;;;1999.90;999.90;;;9.00;99.90;;;;;;5035441;28;20392;-68
2024/03/31 02:16:46;;;;;;;1999.90;999.90;;;9.00;99.90;;;;;;5035404;28;20374;-68
2024/03/31 02:19:12;;;;;;;1999.90;999.90;;;9.00;99.90;;;;;;5035090;28;20053;-67
2024/03/31 02:21:38;;;;;;;1999.90;999.90;;;9.00;99.90;;;;;;5035371;28;20052;-67
2024/03/31 02:24:04;;;;;;;1999.90;999.90;;;9.00;99.90;;;;;;5034861;28;20025;-68
2024/03/31 02:26:30;;;;;;;1999.90;999.90;;;8.90;99.90;;;;;;5035292;28;20076;-68
2024/03/31 02:28:55;;;;;;;1999.90;999.90;;;8.90;99.90;;;;;;5035127;28;20056;-67
2024/03/31 02:31:21;;;;;;;1999.90;999.90;;;8.90;99.90;;;;;;5035603;28;20084;-68
2024/03/31 02:33:47;;;;;;;1999.90;999.90;;;8.90;99.90;;;;;;5034789;28;20035;-68
2024/03/31 02:36:13;;;;;;;1999.90;999.90;;;8.80;99.90;;;;;;5035083;28;20420;-67
2024/03/31 02:38:38;;;;;;;1999.90;999.90;;;8.80;99.90;;;;;;5034955;28;20037;-67
2024/03/31 02:41:04;;;;;;;1999.90;999.90;;;8.80;99.90;;;;;;5034775;28;20026;-68
2024/03/31 02:43:29;;;;;;;1999.90;999.90;;;8.70;99.90;;;;;;5034804;28;20033;-68
2024/03/31 02:45:55;;;;;;;1999.90;999.90;;;8.80;99.90;;;;;;5033752;28;20084;-67
2024/03/31 02:48:21;;;;;;;1999.90;999.90;;;8.80;99.90;;;;;;5034798;28;20034;-68
2024/03/31 02:50:47;;;;;;;1999.90;999.90;;;8.80;99.90;;;;;;5034922;28;20025;-67
2024/03/31 02:53:13;;;;;;;1999.90;999.90;;;8.80;99.90;;;;;;5035006;28;20115;-67
2024/03/31 02:55:38;;;;;;;1999.90;999.90;;;8.80;99.90;;;;;;5034733;28;20099;-67
2024/03/31 02:58:04;;;;;;;1999.90;999.90;;;8.80;99.90;;;;;;5034162;28;20481;-67
2024/03/31 03:00:30;;;;;;;1999.90;999.90;;;8.90;99.90;;;;;;5034175;28;20129;-68
2024/03/31 03:02:55;;;;;;;1999.90;999.90;;;8.90;99.90;;;;;;5034967;28;20079;-67
2024/03/31 03:05:21;;;;;;;1999.90;999.90;;;8.90;99.90;;;;;;5034791;28;20029;-73
2024/03/31 03:07:46;;;;;;;1999.90;999.90;;;9.00;99.90;;;;;;5034327;28;20017;-68
2024/03/31 03:10:12;;;;;;;1999.90;999.90;;;9.00;99.90;;;;;;5034319;28;20025;-67
2024/03/31 03:12:38;;;;;;;1999.90;999.90;;;9.00;99.90;;;;;;5034322;28;20388;-67
2024/03/31 03:15:03;;;;;;;1999.90;999.90;;;9.10;99.90;;;;;;5034495;28;20029;-67
2024/03/31 03:17:29;;;;;;;1999.90;999.90;;;9.10;99.90;;;;;;5034530;28;20096;-67
2024/03/31 03:19:55;;;;;;;1999.90;999.90;;;9.20;99.90;;;;;;5033926;28;20030;-73
2024/03/31 03:22:20;;;;;;;1999.90;999.90;;;9.20;99.90;;;;;;5033909;28;20075;-68
2024/03/31 03:24:46;;;;;;;1999.90;999.90;;;9.30;99.90;;;;;;5034108;28;20491;-67
2024/03/31 03:27:12;;;;;;;1999.90;999.90;;;9.30;99.90;;;;;;5034369;28;20028;-67
2024/03/31 03:29:37;;;;;;;1999.90;999.90;;;9.20;99.90;;;;;;5034212;28;20036;-67
2024/03/31 03:32:03;;;;;;;1999.90;999.90;;;9.30;99.90;;;;;;5034016;28;20113;-68
2024/03/31 03:34:29;;;;;;;1999.90;999.90;;;9.30;99.90;;;;;;5033978;28;20025;-68
2024/03/31 03:36:54;;;;;;;1999.90;999.90;;;9.30;99.90;;;;;;5034110;28;20028;-67
2024/03/31 03:39:20;;;;;;;1999.90;999.90;;;9.30;99.90;;;;;;5033673;28;20442;-68
2024/03/31 03:41:45;;;;;;;1999.90;999.90;;;9.30;99.90;;;;;;5034159;28;20041;-68
2024/03/31 03:44:11;;;;;;;1999.90;999.90;;;9.40;99.90;;;;;;5034075;28;20029;-67
2024/03/31 03:46:37;;;;;;;1999.90;999.90;;;9.50;99.90;;;;;;5033616;28;20033;-67
2024/03/31 03:49:03;;;;;;;1999.90;999.90;;;9.50;99.90;;;;;;5033827;28;20033;-68
2024/03/31 03:51:28;;;;;;;1999.90;999.90;;;9.60;99.90;;;;;;5034115;28;20025;-67
2024/03/31 03:53:54;;;;;;;1999.90;999.90;;;9.60;99.90;;;;;;5033749;28;20025;-68
2024/03/31 03:56:19;;;;;;;1999.90;999.90;;;9.70;99.90;;;;;;5033434;28;20029;-68
2024/03/31 03:58:45;;;;;;;1999.90;999.90;;;9.60;99.90;;;;;;5033394;28;20029;-68
2024/03/31 04:01:11;;;;;;;1999.90;999.90;;;9.60;99.90;;;;;;5033555;28;20069;-68
2024/03/31 04:03:37;;;;;;;1999.90;999.90;;;9.60;99.90;;;;;;5033828;28;20025;-68
2024/03/31 04:06:03;;;;;;;1999.90;999.90;;;9.70;99.90;;;;;;5033192;28;20104;-68
2024/03/31 04:08:29;;;;;;;1999.90;999.90;;;9.80;99.90;;;;;;5032775;28;20607;-68
2024/03/31 04:10:55;;;;;;;1999.90;999.90;;;9.80;99.90;;;;;;5033175;28;20036;-68
2024/03/31 04:13:21;;;;;;;1999.90;999.90;;;9.80;99.90;;;;;;5033412;28;20102;-68
2024/03/31 04:15:59;;;;;;;1999.90;999.90;;;9.80;99.90;;;;;;5033098;28;20096;-68
2024/03/31 04:18:25;;;;;;;1999.90;999.90;;;9.80;99.90;;;;;;5033158;28;20070;-68
2024/03/31 04:20:51;;;;;;;1999.90;999.90;;;9.80;99.90;;;;;;5032616;28;20504;-68
2024/03/31 04:23:17;;;;;;;1999.90;999.90;;;9.80;99.90;;;;;;5033009;28;20026;-68
2024/03/31 04:25:43;;;;;;;1999.90;999.90;;;9.80;99.90;;;;;;5032918;28;20033;-68
2024/03/31 04:28:08;;;;;;;1999.90;999.90;;;9.80;99.90;;;;;;5031634;28;20025;-68
2024/03/31 04:30:43;;;;;;;1999.90;999.90;;;9.80;99.90;;;;;;5033064;28;20029;-68
2024/03/31 04:33:12;;;;;;;1999.90;999.90;;;9.80;99.90;;;;;;5033006;28;20396;-68
2024/03/31 04:35:38;;;;;;;1999.90;999.90;;;9.90;99.90;;;;;;5033050;28;20061;-67
2024/03/31 04:38:04;;;;;;;1999.90;999.90;;;9.90;99.90;;;;;;5032746;28;20030;-68
2024/03/31 04:40:30;;;;;;;1999.90;999.90;;;9.90;99.90;;;;;;5032650;28;20547;-68
2024/03/31 04:42:55;;;;;;;1999.90;999.90;;;9.90;99.90;;;;;;5032899;28;20029;-68
2024/03/31 04:45:22;;;;;;;1999.90;999.90;;;9.90;99.90;;;;;;5033022;28;20484;-69
2024/03/31 04:47:48;;;;;;;1999.90;999.90;;;10.00;99.90;;;;;;5031245;28;20022;-68
2024/03/31 04:50:14;;;;;;;1999.90;999.90;;;10.10;99.90;;;;;;5032659;28;20040;-67
2024/03/31 04:52:40;;;;;;;1999.90;999.90;;;10.20;99.90;;;;;;5032590;28;20189;-68
2024/03/31 04:55:05;;;;;;;1999.90;999.90;;;10.40;99.90;;;;;;5032694;28;20400;-68
2024/03/31 04:57:31;;;;;;;1999.90;999.90;;;10.40;99.90;;;;;;5032867;28;20108;-67
2024/03/31 04:59:56;;;;;;;1999.90;999.90;;;10.40;99.90;;;;;;5032728;28;20022;-68
2024/03/31 05:02:22;;;;;;;1999.90;999.90;;;10.40;99.90;;;;;;5032537;28;20428;-68
2024/03/31 05:04:48;;;;;;;1999.90;999.90;;;10.50;99.90;;;;;;5032650;28;20026;-67
2024/03/31 05:07:13;;;;;;;1999.90;999.90;;;10.50;99.90;;;;;;5032631;28;20029;-67
2024/03/31 05:09:39;;;;;;;1999.90;999.90;;;10.50;99.90;;;;;;5035893;28;20503;-67
2024/03/31 05:12:05;;;;;;;1999.90;999.90;;;10.50;99.90;;;;;;5036900;28;20021;-68
2024/03/31 05:14:31;;;;;;;1999.90;999.90;;;10.60;99.90;;;;;;5036620;28;20053;-67
2024/03/31 05:16:57;;;;;;;1999.90;999.90;;;10.70;99.90;;;;;;5036554;28;20097;-68
2024/03/31 05:19:23;;;;;;;1999.90;999.90;;;10.70;99.90;;;;;;5035950;28;20057;-68
2024/03/31 05:21:49;;;;;;;1999.90;999.90;;;10.70;99.90;;;;;;5036316;28;20036;-68
2024/03/31 05:24:15;;;;;;;1999.90;999.90;;;10.80;99.90;;;;;;5036233;28;20033;-67
2024/03/31 05:26:41;;;;;;;1999.90;999.90;;;10.80;99.90;;;;;;5036664;28;20022;-67
2024/03/31 05:29:06;;;;;;;1999.90;999.90;;;10.80;99.90;;;;;;5036143;28;20029;-67
2024/03/31 05:31:32;;;;;;;1999.90;999.90;;;10.90;99.90;;;;;;5036435;28;20467;-66
2024/03/31 05:33:59;;;;;;;1999.90;999.90;;;10.80;99.90;;;;;;5036335;28;20126;-67
2024/03/31 05:36:25;;;;;;;1999.90;999.90;;;10.90;99.90;;;;;;5035936;28;20026;-67
2024/03/31 05:38:51;;;;;;;1999.90;999.90;;;10.90;99.90;;;;;;5036456;28;20037;-67
2024/03/31 05:41:16;;;;;;;1999.90;999.90;;;11.00;99.90;;;;;;5036073;28;20022;-67
2024/03/31 05:43:42;;;;;;;1999.90;999.90;;;11.00;99.90;;;;;;5036198;28;20392;-67
2024/03/31 05:46:08;;;;;;;1999.90;999.90;;;11.00;99.90;;;;;;5036008;28;20480;-67
2024/03/31 05:48:33;;;;;;;1999.90;999.90;;;11.00;99.90;;;;;;5034566;28;20062;-67
2024/03/31 05:50:59;;;;;;;1999.90;999.90;;;11.00;99.90;;;;;;5036218;28;20033;-66
2024/03/31 05:53:25;;;;;;;1999.90;999.90;;;11.00;99.90;;;;;;5036047;28;20032;-67
2024/03/31 05:55:50;;;;;;;1999.90;999.90;;;11.00;99.90;;;;;;5036102;28;20488;-67
2024/03/31 05:58:16;;;;;;;1999.90;999.90;;;11.00;99.90;;;;;;5035782;28;20057;-67
2024/03/31 06:00:41;;;;;;;1999.90;999.90;;;11.00;99.90;;;;;;5036001;28;20033;-67
2024/03/31 06:03:07;;;;;;;1999.90;999.90;;;11.00;99.90;;;;;;5035831;28;20084;-67
2024/03/31 06:05:33;;;;;;;1999.90;999.90;;;11.00;99.90;;;;;;5035247;28;20037;-67
2024/03/31 06:07:58;;;;;;;1999.90;999.90;;;10.90;99.90;;;;;;5035450;28;20116;-68
2024/03/31 06:10:24;;;;;;;1999.90;999.90;;;10.90;99.90;;;;;;5035388;28;20029;-68
2024/03/31 06:12:50;;;;;;;1999.90;999.90;;;10.90;99.90;;;;;;5035554;28;20022;-67
2024/03/31 06:15:16;;;;;;;1999.90;999.90;;;10.90;99.90;;;;;;5035693;28;20021;-68
2024/03/31 06:17:42;;;;;;;1999.90;999.90;;;10.80;99.90;;;;;;5035310;28;20029;-68
2024/03/31 06:20:08;;;;;;;1999.90;999.90;;;10.80;99.90;;;;;;5035242;28;20029;-67
2024/03/31 06:22:41;;;;;;;1999.90;999.90;;;10.70;99.90;;;;;;5035019;28;20040;-67
2024/03/31 06:25:07;;;;;;;1999.90;999.90;;;10.60;99.90;;;;;;5035008;28;20167;-66
2024/03/31 06:27:34;;;;;;;1999.90;999.90;;;10.50;99.90;;;;;;5035285;28;20030;-73
2024/03/31 06:30:00;;;;;;;1999.90;999.90;;;10.50;99.90;;;;;;5035313;28;20025;-66
2024/03/31 06:32:26;;;;;;;1999.90;999.90;;;10.50;99.90;;;;;;5035274;28;20029;-67
2024/03/31 06:34:52;;;;;;;1999.90;999.90;;;10.40;99.90;;;;;;5035215;28;20389;-67
2024/03/31 06:37:18;;;;;;;1999.90;999.90;;;10.50;99.90;;;;;;5035248;28;20476;-68
2024/03/31 06:39:44;;;;;;;1999.90;999.90;;;10.50;99.90;;;;;;5035148;28;20070;-67
2024/03/31 06:42:11;;;;;;;1999.90;999.90;;;10.50;99.90;;;;;;5034940;28;20147;-67
2024/03/31 06:44:36;;;;;;;1999.90;999.90;;;10.50;99.90;;;;;;5034955;28;20029;-67
2024/03/31 06:47:02;;;;;;;1999.90;999.90;;;10.60;99.90;;;;;;5035014;28;20045;-67
2024/03/31 06:49:28;;;;;;;1999.90;999.90;;;10.60;99.90;;;;;;5035256;28;20465;-66
2024/03/31 06:51:53;;;;;;;1999.90;999.90;;;10.60;99.90;;;;;;5034722;28;20091;-72
2024/03/31 06:54:19;;;;;;;1999.90;999.90;;;10.60;99.90;;;;;;5034593;28;20029;-72
2024/03/31 06:56:44;;;;;;;1999.90;999.90;;;10.60;99.90;;;;;;5034206;28;20151;-72
2024/03/31 06:59:11;;;;;;;1999.90;999.90;;;10.70;99.90;;;;;;5034762;28;20034;-72
2024/03/31 07:01:36;;;;;;;1999.90;999.90;;;10.70;99.90;;;;;;5034887;28;20075;-67
2024/03/31 07:04:02;;;;;;;1999.90;999.90;;;10.70;99.90;;;;;;5034568;28;20029;-67
2024/03/31 07:06:28;;;;;;;1999.90;999.90;;;10.60;99.90;;;;;;5034529;28;20399;-67
2024/03/31 07:08:53;;;;;;;1999.90;999.90;;;10.60;99.90;;;;;;5034249;28;20065;-66
2024/03/31 07:11:19;;;;;;;1999.90;999.90;;;10.60;99.90;;;;;;5033521;28;20025;-67
2024/03/31 07:13:46;;;;;;;1999.90;999.90;;;10.60;99.90;;;;;;5034405;28;20053;-67
2024/03/31 07:16:12;;;;;;;1999.90;999.90;;;10.60;99.90;;;;;;5034537;28;20498;-67
2024/03/31 07:18:37;;;;;;;1999.90;999.90;;;10.70;99.90;;;;;;5034151;28;20064;-67
2024/03/31 07:21:03;;;;;;;1999.90;999.90;;;10.70;99.90;;;;;;5033967;28;20029;-68
2024/03/31 07:23:29;;;;;;;1999.90;999.90;;;10.70;99.90;;;;;;5034349;28;20519;-67
2024/03/31 07:25:55;;;;;;;1999.90;999.90;;;10.80;99.90;;;;;;5034277;28;20021;-68
2024/03/31 07:28:21;;;;;;;1999.90;999.90;;;10.80;99.90;;;;;;5033868;28;20064;-68
2024/03/31 07:30:47;;;;;;;1999.90;999.90;;;10.90;99.90;;;;;;5033370;28;20025;-67
2024/03/31 07:33:12;;;;;;;1999.90;999.90;;;11.00;99.90;;;;;;5034062;28;20382;-68
2024/03/31 07:35:38;;;;;;;1999.90;999.90;;;11.00;99.90;;;;;;5034136;28;20028;-68
2024/03/31 07:38:04;;;;;;;1999.90;999.90;;;11.10;99.90;;;;;;5033969;28;20040;-67
2024/03/31 07:40:31;;;;;;;1999.90;999.90;;;11.20;99.90;;;;;;5033812;28;20021;-68
2024/03/31 07:42:56;;;;;;;1999.90;999.90;;;11.30;99.90;;;;;;5033817;28;20033;-68
2024/03/31 07:45:22;;;;;;;1999.90;999.90;;;11.30;99.90;;;;;;5032433;28;20029;-67
2024/03/31 07:47:47;;;;;;;1999.90;999.90;;;11.30;99.90;;;;;;5033265;28;20488;-69
2024/03/31 07:50:14;;;;;;;1999.90;999.90;;;11.30;99.90;;;;;;5034042;28;20026;-68
2024/03/31 07:52:41;;;;;;;1999.90;999.90;;;11.40;99.90;;;;;;5033904;28;20064;-68
2024/03/31 07:55:07;;;;;;;1999.90;999.90;;;11.40;99.90;;;;;;5033626;28;20049;-68
2024/03/31 07:57:32;;;;;;;1999.90;999.90;;;11.40;99.90;;;;;;5033694;28;20052;-68
2024/03/31 07:59:58;;;;;;;1999.90;999.90;;;11.50;99.90;;;;;;5033312;28;20476;-74
2024/03/31 08:02:24;;;;;;;1999.90;999.90;;;11.50;99.90;;;;;;5033642;28;20037;-68
2024/03/31 08:04:49;;;;;;;1999.90;999.90;;;11.60;99.90;;;;;;5032678;28;20079;-68
2024/03/31 08:07:15;;;;;;;1999.90;999.90;;;11.60;99.90;;;;;;5032204;28;20025;-68
2024/03/31 08:09:41;;;;;;;1999.90;999.90;;;11.60;99.90;;;;;;5033178;28;20021;-68
2024/03/31 08:12:06;;;;;;;1999.90;999.90;;;11.70;99.90;;;;;;5033059;28;20053;-74
2024/03/31 08:14:32;;;;;;;1999.90;999.90;;;11.70;99.90;;;;;;5033284;28;20030;-68
2024/03/31 08:16:58;;;;;;;1999.90;999.90;;;11.80;99.90;;;;;;5033565;28;20079;-68
2024/03/31 08:19:23;;;;;;;1999.90;999.90;;;11.90;99.90;;;;;;5032918;28;20123;-68
2024/03/31 08:21:49;;;;;;;1999.90;999.90;;;11.90;99.90;;;;;;5032880;28;20021;-68
2024/03/31 08:24:14;;;;;;;1999.90;999.90;;;12.00;99.90;;;;;;5032819;28;20099;-74
2024/03/31 08:26:40;;;;;;;1999.90;999.90;;;12.00;99.90;;;;;;5033347;28;20041;-74
2024/03/31 08:29:06;;;;;;;1999.90;999.90;;;12.10;99.90;;;;;;5033138;28;20029;-74
2024/03/31 08:31:31;;;;;;;1999.90;999.90;;;12.30;99.90;;;;;;5032513;28;20446;-68
2024/03/31 08:33:57;;;;;;;1999.90;999.90;;;12.50;99.90;;;;;;5032902;28;20476;-68
2024/03/31 08:36:22;;;;;;;1999.90;999.90;;;12.60;99.90;;;;;;5032836;28;20022;-68
2024/03/31 08:38:48;;;;;;;1999.90;999.90;;;12.60;99.90;;;;;;5033227;28;20030;-75
2024/03/31 08:41:33;;;;;;;1999.90;999.90;;;12.70;99.90;;;;;;5032952;28;20057;-68
2024/03/31 08:44:03;;;;;;;1999.90;999.90;;;12.80;99.90;;;;;;5032936;28;20163;-68
2024/03/31 08:46:29;;;;;;;1999.90;999.90;;;12.90;99.90;;;;;;5032962;28;20155;-74
2024/03/31 08:48:54;;;;;;;1999.90;999.90;;;13.20;99.90;;;;;;5033011;28;20116;-68
2024/03/31 08:51:21;;;;;;;1999.90;999.90;;;13.40;99.90;;;;;;5032801;28;20024;-74
2024/03/31 08:53:48;;;;;;;1999.90;999.90;;;13.40;99.90;;;;;;5032759;28;20032;-74
2024/03/31 08:56:14;;;;;;;1999.90;999.90;;;13.40;99.90;;;;;;5033108;28;20500;-68
2024/03/31 08:58:41;;;;;;;1999.90;999.90;;;13.50;99.90;;;;;;5032520;28;20117;-68
2024/03/31 09:01:09;;;;;;;1999.90;999.90;;;13.60;99.90;;;;;;5032605;28;20053;-68
2024/03/31 09:03:35;;;;;;;1999.90;999.90;;;13.40;99.90;;;;;;5032914;28;20067;-74
2024/03/31 09:06:00;;;;;;;1999.90;999.90;;;13.30;99.90;;;;;;5032496;28;20057;-74
2024/03/31 09:08:26;;;;;;;1999.90;999.90;;;13.30;99.90;;;;;;5032561;28;20369;-68
2024/03/31 09:10:52;;;;;;;1999.90;999.90;;;13.30;99.90;;;;;;5032635;28;20095;-68
2024/03/31 09:13:17;;;;;;;1999.90;999.90;;;13.30;99.90;;;;;;5032840;28;20021;-68
2024/03/31 09:15:44;;;;;;;1999.90;999.90;;;13.40;99.90;;;;;;5032511;28;20439;-74
2024/03/31 09:18:09;;;;;;;1999.90;999.90;;;13.50;99.90;;;;;;5032632;28;20073;-74
2024/03/31 09:20:35;;;;;;;1999.90;999.90;;;13.70;99.90;;;;;;5032152;28;20068;-68
2024/03/31 09:23:01;;;;;;;1999.90;999.90;;;14.40;99.90;;;;;;5032372;28;20025;-68
2024/03/31 09:25:27;;;;;;;1999.90;999.90;;;14.50;99.90;;;;;;5032116;28;20083;-69
2024/03/31 09:27:54;;;;;;;1999.90;999.90;;;14.20;99.90;;;;;;5032567;28;20022;-68
2024/03/31 09:30:23;;;;;;;1999.90;999.90;;;13.90;99.90;;;;;;5032282;28;20017;-75
2024/03/31 09:32:48;;;;;;;1999.90;999.90;;;14.20;99.90;;;;;;5031467;28;20036;-68
2024/03/31 09:35:15;;;;;;;1999.90;999.90;;;14.20;99.90;;;;;;5031614;28;20026;-69
2024/03/31 09:37:41;;;;;;;1999.90;999.90;;;13.90;99.90;;;;;;5032191;28;20026;-68
2024/03/31 09:40:07;;;;;;;1999.90;999.90;;;13.70;99.90;;;;;;5032225;28;20024;-68
2024/03/31 09:42:33;;;;;;;1999.90;999.90;;;13.20;99.90;;;;;;5032417;28;20030;-68
2024/03/31 09:45:01;;;;;;;1999.90;999.90;;;12.80;99.90;;;;;;5032427;28;20100;-73
2024/03/31 09:47:40;;;;;;;1999.90;999.90;;;12.20;99.90;;;;;;5032092;28;20492;-68
2024/03/31 09:50:32;;;;;;;1999.90;999.90;;;12.10;99.90;;;;;;5032057;28;20110;-68
2024/03/31 09:53:05;;;;;;;1999.90;999.90;;;12.10;99.90;;;;;;5032101;28;20025;-68
2024/03/31 09:55:38;;;;;;;1999.90;999.90;;;12.20;99.90;;;;;;5035146;28;20096;-69
2024/03/31 09:58:11;;;;;;;1999.90;999.90;;;12.40;99.90;;;;;;5035789;28;20528;-68
2024/03/31 10:00:41;;;;;;;1999.90;999.90;;;12.60;99.90;;;;;;5034826;28;20108;-68
2024/03/31 10:03:13;;;;;;;1999.90;999.90;;;13.00;99.90;;;;;;5036079;28;20034;-68
2024/03/31 10:05:40;;;;;;;1999.90;999.90;;;13.60;99.90;;;;;;5035876;28;20033;-68
2024/03/31 10:08:08;;;;;;;1999.90;999.90;;;13.70;99.90;;;;;;5035873;28;20024;-75
2024/03/31 10:10:35;;;;;;;1999.90;999.90;;;12.90;99.90;;;;;;5035255;28;20107;-68
2024/03/31 10:13:02;;;;;;;1999.90;999.90;;;12.70;99.90;;;;;;5035584;28;20548;-68
2024/03/31 10:15:29;;;;;;;1999.90;999.90;;;12.90;99.90;;;;;;5035447;28;20080;-68
2024/03/31 10:17:57;;;;;;;1999.90;999.90;;;12.40;99.90;;;;;;5035539;28;20040;-68
2024/03/31 10:20:25;;;;;;;1999.90;999.90;;;12.20;99.90;;;;;;5035079;28;20068;-68
2024/03/31 10:22:52;;;;;;;1999.90;999.90;;;12.70;99.90;;;;;;5035342;28;20018;-68
2024/03/31 10:25:19;;;;;;;1999.90;999.90;;;13.10;99.90;;;;;;5034950;28;20476;-68
2024/03/31 10:27:48;;;;;;;1999.90;999.90;;;13.40;99.90;;;;;;5035242;28;20028;-69
2024/03/31 10:30:14;;;;;;;1999.90;999.90;;;13.90;99.90;;;;;;5035167;28;20021;-69
2024/03/31 10:32:39;;;;;;;1999.90;999.90;;;13.80;99.90;;;;;;5035437;28;20045;-68
2024/03/31 10:35:06;;;;;;;1999.90;999.90;;;13.10;99.90;;;;;;5035476;28;20021;-75
2024/03/31 10:37:33;;;;;;;1999.90;999.90;;;12.50;99.90;;;;;;5035329;28;20511;-68
2024/03/31 10:40:00;;;;;;;1999.90;999.90;;;12.10;99.90;;;;;;5035125;28;20033;-69
2024/03/31 10:42:26;;;;;;;1999.90;999.90;;;12.00;99.90;;;;;;5035114;28;20075;-69
2024/03/31 10:44:55;;;;;;;1999.90;999.90;;;12.00;99.90;;;;;;5035275;28;20120;-69
2024/03/31 10:47:21;;;;;;;1999.90;999.90;;;12.90;99.90;;;;;;5034690;28;20017;-69
2024/03/31 10:49:55;;;;;;;1999.90;999.90;;;12.90;99.90;;;;;;5035108;28;20133;-68
2024/03/31 10:52:24;;;;;;;1999.90;999.90;;;12.90;99.90;;;;;;5034873;28;20022;-68
2024/03/31 10:54:51;;;;;;;1999.90;999.90;;;12.80;99.90;;;;;;5034868;28;20024;-68
2024/03/31 10:57:17;;;;;;;1999.90;999.90;;;12.30;99.90;;;;;;5035007;28;20148;-68
2024/03/31 10:59:43;;;;;;;1999.90;999.90;;;12.40;99.90;;;;;;5034714;28;20037;-68
2024/03/31 11:02:15;;;;;;;1999.90;999.90;;;12.40;99.90;;;;;;5034870;28;20111;-68
2024/03/31 11:04:42;;;;;;;1999.90;999.90;;;13.00;99.90;;;;;;5034804;28;20037;-68
2024/03/31 11:07:11;;;;;;;1999.90;999.90;;;12.70;99.90;;;;;;5033666;28;20026;-74
2024/03/31 11:09:38;;;;;;;1999.90;999.90;;;13.20;99.90;;;;;;5034283;28;20472;-69
2024/03/31 11:12:14;;;;;;;1999.90;999.90;;;12.90;99.90;;;;;;5034523;28;20034;-68
2024/03/31 11:14:42;;;;;;;1999.90;999.90;;;12.80;99.90;;;;;;5034639;28;20504;-68
2024/03/31 11:17:09;;;;;;;1999.90;999.90;;;12.70;99.90;;;;;;5034251;28;20025;-69
2024/03/31 11:19:37;;;;;;;1999.90;999.90;;;13.50;99.90;;;;;;5033798;28;20072;-74
2024/03/31 11:22:04;;;;;;;1999.90;999.90;;;13.60;99.90;;;;;;5033766;28;20065;-68
2024/03/31 11:24:31;;;;;;;1999.90;999.90;;;13.30;99.90;;;;;;5034140;28;20026;-67
2024/03/31 11:26:57;;;;;;;1999.90;999.90;;;13.80;99.90;;;;;;5034302;28;20025;-74
2024/03/31 11:29:24;;;;;;;1999.90;999.90;;;14.10;99.90;;;;;;5034135;28;20026;-74
2024/03/31 11:31:51;;;;;;;1999.90;999.90;;;13.70;99.90;;;;;;5034253;28;20411;-69
2024/03/31 11:34:18;;;;;;;1999.90;999.90;;;13.70;99.90;;;;;;5033958;28;20526;-68
2024/03/31 11:36:44;;;;;;;1999.90;999.90;;;13.50;99.90;;;;;;5034031;28;20076;-75
2024/03/31 11:39:12;;;;;;;1999.90;999.90;;;13.40;99.90;;;;;;5034241;28;20205;-74
2024/03/31 11:41:38;;;;;;;1999.90;999.90;;;13.30;99.90;;;;;;5033857;28;20025;-68
2024/03/31 11:44:03;;;;;;;1999.90;999.90;;;13.30;99.90;;;;;;5034196;28;20029;-75
2024/03/31 11:46:30;;;;;;;1999.90;999.90;;;13.30;99.90;;;;;;5033659;28;20040;-69
2024/03/31 11:48:58;;;;;;;1999.90;999.90;;;13.70;99.90;;;;;;5033660;28;20029;-75
2024/03/31 11:51:25;;;;;;;1999.90;999.90;;;14.10;99.90;;;;;;5033969;28;20395;-68
2024/03/31 11:53:52;;;;;;;1999.90;999.90;;;13.90;99.90;;;;;;5033642;28;20083;-75
2024/03/31 11:56:17;;;;;;;1999.90;999.90;;;13.80;99.90;;;;;;5033882;28;20021;-69
2024/03/31 11:58:43;;;;;;;1999.90;999.90;;;14.20;99.90;;;;;;5033437;28;20091;-69